sensor_id;sensor_type;location;lat;lon;timestamp;P1;durP1;ratioP1;P2;durP2;ratioP2
25341;SDS011;13298;48.792;9.154;2023-07-29T00:00:45;1.45;;;1.35;;
25341;SDS011;13298;48.792;9.154;2023-07-29T00:03:11;1.50;;;1.17;;
25341;SDS011;13298;48.792;9.154;2023-07-29T00:05:37;3.88;;;1.10;;
25341;SDS011;13298;48.792;9.154;2023-07-29T00:08:04;1.55;;;1.10;;
25341;SDS011;13298;48.792;9.154;2023-07-29T00:10:35;2.25;;;1.20;;
25341;SDS011;13298;48.792;9.154;2023-07-29T00:13:02;1.73;;;1.25;;
25341;SDS011;13298;48.792;9.154;2023-07-29T00:15:29;1.20;;;1.10;;
25341;SDS011;13298;48.792;9.154;2023-07-29T00:17:54;3.15;;;1.23;;
25341;SDS011;13298;48.792;9.154;2023-07-29T00:20:20;2.33;;;1.20;;
25341;SDS011;13298;48.792;9.154;2023-07-29T00:22:46;1.92;;;1.52;;
25341;SDS011;13298;48.792;9.154;2023-07-29T00:25:14;4.57;;;1.45;;
25341;SDS011;13298;48.792;9.154;2023-07-29T00:27:40;2.53;;;1.50;;
25341;SDS011;13298;48.792;9.154;2023-07-29T00:30:07;1.52;;;1.25;;
25341;SDS011;13298;48.792;9.154;2023-07-29T00:32:34;1.33;;;1.10;;
25341;SDS011;13298;48.792;9.154;2023-07-29T00:35:00;1.10;;;1.00;;
25341;SDS011;13298;48.792;9.154;2023-07-29T00:37:27;1.70;;;1.20;;
25341;SDS011;13298;48.792;9.154;2023-07-29T00:39:53;1.73;;;1.35;;
25341;SDS011;13298;48.792;9.154;2023-07-29T00:42:19;1.80;;;1.35;;
25341;SDS011;13298;48.792;9.154;2023-07-29T00:44:45;2.33;;;1.10;;
25341;SDS011;13298;48.792;9.154;2023-07-29T00:47:11;1.55;;;1.10;;
25341;SDS011;13298;48.792;9.154;2023-07-29T00:49:37;1.75;;;1.25;;
25341;SDS011;13298;48.792;9.154;2023-07-29T00:52:03;2.30;;;1.40;;
25341;SDS011;13298;48.792;9.154;2023-07-29T00:54:29;3.35;;;1.25;;
25341;SDS011;13298;48.792;9.154;2023-07-29T00:56:55;4.05;;;1.60;;
25341;SDS011;13298;48.792;9.154;2023-07-29T00:59:21;1.63;;;1.27;;
25341;SDS011;13298;48.792;9.154;2023-07-29T01:01:47;1.67;;;1.30;;
25341;SDS011;13298;48.792;9.154;2023-07-29T01:04:13;1.95;;;1.27;;
25341;SDS011;13298;48.792;9.154;2023-07-29T01:10:01;1.50;;;1.23;;
25341;SDS011;13298;48.792;9.154;2023-07-29T01:12:48;2.10;;;1.40;;
25341;SDS011;13298;48.792;9.154;2023-07-29T01:19:05;1.35;;;1.05;;
25341;SDS011;13298;48.792;9.154;2023-07-29T01:21:34;1.77;;;1.30;;
25341;SDS011;13298;48.792;9.154;2023-07-29T01:24:01;1.33;;;1.20;;
25341;SDS011;13298;48.792;9.154;2023-07-29T01:26:27;4.13;;;1.27;;
25341;SDS011;13298;48.792;9.154;2023-07-29T01:28:54;1.65;;;1.20;;
25341;SDS011;13298;48.792;9.154;2023-07-29T01:34:10;1.83;;;1.30;;
25341;SDS011;13298;48.792;9.154;2023-07-29T01:37:00;4.25;;;1.02;;
25341;SDS011;13298;48.792;9.154;2023-07-29T01:39:30;1.10;;;1.00;;
25341;SDS011;13298;48.792;9.154;2023-07-29T01:42:00;1.35;;;1.10;;
25341;SDS011;13298;48.792;9.154;2023-07-29T01:44:27;1.58;;;1.27;;
25341;SDS011;13298;48.792;9.154;2023-07-29T01:46:52;1.42;;;1.10;;
25341;SDS011;13298;48.792;9.154;2023-07-29T01:49:22;1.20;;;1.10;;
25341;SDS011;13298;48.792;9.154;2023-07-29T01:51:47;1.30;;;1.20;;
25341;SDS011;13298;48.792;9.154;2023-07-29T01:54:13;1.65;;;1.33;;
25341;SDS011;13298;48.792;9.154;2023-07-29T01:56:39;1.98;;;1.27;;
25341;SDS011;13298;48.792;9.154;2023-07-29T01:59:04;1.30;;;1.15;;
25341;SDS011;13298;48.792;9.154;2023-07-29T02:01:30;2.30;;;1.30;;
25341;SDS011;13298;48.792;9.154;2023-07-29T02:03:56;2.25;;;1.30;;
25341;SDS011;13298;48.792;9.154;2023-07-29T02:06:22;1.60;;;1.30;;
25341;SDS011;13298;48.792;9.154;2023-07-29T02:08:47;2.28;;;1.35;;
25341;SDS011;13298;48.792;9.154;2023-07-29T02:11:13;2.08;;;1.20;;
25341;SDS011;13298;48.792;9.154;2023-07-29T02:13:39;2.35;;;1.40;;
25341;SDS011;13298;48.792;9.154;2023-07-29T02:16:04;1.80;;;1.30;;
25341;SDS011;13298;48.792;9.154;2023-07-29T02:18:30;2.03;;;1.55;;
25341;SDS011;13298;48.792;9.154;2023-07-29T02:20:56;1.40;;;1.08;;
25341;SDS011;13298;48.792;9.154;2023-07-29T02:23:21;1.75;;;1.10;;
25341;SDS011;13298;48.792;9.154;2023-07-29T02:25:47;2.45;;;1.30;;
25341;SDS011;13298;48.792;9.154;2023-07-29T02:28:13;1.48;;;1.08;;
25341;SDS011;13298;48.792;9.154;2023-07-29T02:30:40;2.85;;;1.45;;
25341;SDS011;13298;48.792;9.154;2023-07-29T02:33:09;2.20;;;1.33;;
25341;SDS011;13298;48.792;9.154;2023-07-29T02:35:35;1.05;;;1.00;;
25341;SDS011;13298;48.792;9.154;2023-07-29T02:38:00;1.35;;;1.25;;
25341;SDS011;13298;48.792;9.154;2023-07-29T02:40:26;1.95;;;1.40;;
25341;SDS011;13298;48.792;9.154;2023-07-29T02:42:54;1.40;;;1.25;;
25341;SDS011;13298;48.792;9.154;2023-07-29T02:45:19;2.03;;;1.48;;
25341;SDS011;13298;48.792;9.154;2023-07-29T02:47:45;2.00;;;1.52;;
25341;SDS011;13298;48.792;9.154;2023-07-29T02:50:11;2.13;;;1.50;;
25341;SDS011;13298;48.792;9.154;2023-07-29T02:52:37;1.52;;;1.38;;
25341;SDS011;13298;48.792;9.154;2023-07-29T02:55:03;1.25;;;1.15;;
25341;SDS011;13298;48.792;9.154;2023-07-29T02:57:30;1.63;;;1.45;;
25341;SDS011;13298;48.792;9.154;2023-07-29T02:59:55;1.40;;;1.30;;
25341;SDS011;13298;48.792;9.154;2023-07-29T03:02:21;1.73;;;1.40;;
25341;SDS011;13298;48.792;9.154;2023-07-29T03:04:47;2.67;;;1.30;;
25341;SDS011;13298;48.792;9.154;2023-07-29T03:07:13;2.13;;;1.23;;
25341;SDS011;13298;48.792;9.154;2023-07-29T03:09:39;1.20;;;1.10;;
25341;SDS011;13298;48.792;9.154;2023-07-29T03:12:06;2.03;;;1.42;;
25341;SDS011;13298;48.792;9.154;2023-07-29T03:14:33;2.55;;;1.50;;
25341;SDS011;13298;48.792;9.154;2023-07-29T03:17:01;2.15;;;1.50;;
25341;SDS011;13298;48.792;9.154;2023-07-29T03:19:29;1.85;;;1.50;;
25341;SDS011;13298;48.792;9.154;2023-07-29T03:21:55;2.00;;;1.63;;
25341;SDS011;13298;48.792;9.154;2023-07-29T03:24:20;3.28;;;1.63;;
25341;SDS011;13298;48.792;9.154;2023-07-29T03:26:46;2.38;;;1.58;;
25341;SDS011;13298;48.792;9.154;2023-07-29T03:29:12;3.47;;;1.52;;
25341;SDS011;13298;48.792;9.154;2023-07-29T03:31:37;2.20;;;1.38;;
25341;SDS011;13298;48.792;9.154;2023-07-29T03:34:03;1.52;;;1.25;;
25341;SDS011;13298;48.792;9.154;2023-07-29T03:36:29;2.85;;;1.52;;
25341;SDS011;13298;48.792;9.154;2023-07-29T03:38:54;1.83;;;1.25;;
25341;SDS011;13298;48.792;9.154;2023-07-29T03:41:20;1.50;;;1.30;;
25341;SDS011;13298;48.792;9.154;2023-07-29T03:43:46;2.83;;;1.60;;
25341;SDS011;13298;48.792;9.154;2023-07-29T03:46:11;2.33;;;1.67;;
25341;SDS011;13298;48.792;9.154;2023-07-29T03:48:38;1.45;;;1.17;;
25341;SDS011;13298;48.792;9.154;2023-07-29T03:51:04;1.60;;;1.40;;
25341;SDS011;13298;48.792;9.154;2023-07-29T03:53:29;2.08;;;1.35;;
25341;SDS011;13298;48.792;9.154;2023-07-29T03:55:55;3.30;;;1.60;;
25341;SDS011;13298;48.792;9.154;2023-07-29T03:58:21;1.42;;;1.33;;
25341;SDS011;13298;48.792;9.154;2023-07-29T04:00:46;2.35;;;1.95;;
25341;SDS011;13298;48.792;9.154;2023-07-29T04:03:12;3.50;;;1.80;;
25341;SDS011;13298;48.792;9.154;2023-07-29T04:05:38;3.25;;;1.95;;
25341;SDS011;13298;48.792;9.154;2023-07-29T04:08:04;1.98;;;1.65;;
25341;SDS011;13298;48.792;9.154;2023-07-29T04:10:30;3.83;;;2.17;;
25341;SDS011;13298;48.792;9.154;2023-07-29T04:12:56;3.65;;;2.00;;
25341;SDS011;13298;48.792;9.154;2023-07-29T04:15:22;3.60;;;2.10;;
25341;SDS011;13298;48.792;9.154;2023-07-29T04:17:48;1.95;;;1.70;;
25341;SDS011;13298;48.792;9.154;2023-07-29T04:20:13;1.75;;;1.55;;
25341;SDS011;13298;48.792;9.154;2023-07-29T04:22:39;2.20;;;1.50;;
25341;SDS011;13298;48.792;9.154;2023-07-29T04:25:05;1.95;;;1.50;;
25341;SDS011;13298;48.792;9.154;2023-07-29T04:27:31;1.88;;;1.50;;
25341;SDS011;13298;48.792;9.154;2023-07-29T04:29:57;2.33;;;1.45;;
25341;SDS011;13298;48.792;9.154;2023-07-29T04:32:23;4.15;;;1.70;;
25341;SDS011;13298;48.792;9.154;2023-07-29T04:34:48;1.95;;;1.50;;
25341;SDS011;13298;48.792;9.154;2023-07-29T04:37:14;2.05;;;1.67;;
25341;SDS011;13298;48.792;9.154;2023-07-29T04:39:40;2.42;;;1.55;;
25341;SDS011;13298;48.792;9.154;2023-07-29T04:42:05;5.18;;;1.80;;
25341;SDS011;13298;48.792;9.154;2023-07-29T04:44:31;3.78;;;1.90;;
25341;SDS011;13298;48.792;9.154;2023-07-29T04:46:57;2.83;;;1.90;;
25341;SDS011;13298;48.792;9.154;2023-07-29T04:49:22;4.85;;;2.10;;
25341;SDS011;13298;48.792;9.154;2023-07-29T04:51:48;3.03;;;1.88;;
25341;SDS011;13298;48.792;9.154;2023-07-29T04:54:14;4.97;;;2.00;;
25341;SDS011;13298;48.792;9.154;2023-07-29T04:56:39;4.10;;;1.95;;
25341;SDS011;13298;48.792;9.154;2023-07-29T04:59:05;2.97;;;1.90;;
25341;SDS011;13298;48.792;9.154;2023-07-29T05:01:33;2.30;;;1.90;;
25341;SDS011;13298;48.792;9.154;2023-07-29T05:03:59;2.58;;;1.80;;
25341;SDS011;13298;48.792;9.154;2023-07-29T05:06:24;4.90;;;2.00;;
25341;SDS011;13298;48.792;9.154;2023-07-29T05:08:50;3.05;;;1.80;;
25341;SDS011;13298;48.792;9.154;2023-07-29T05:11:16;4.30;;;1.70;;
25341;SDS011;13298;48.792;9.154;2023-07-29T05:13:41;4.97;;;2.22;;
25341;SDS011;13298;48.792;9.154;2023-07-29T05:16:08;8.82;;;2.35;;
25341;SDS011;13298;48.792;9.154;2023-07-29T05:18:34;3.63;;;2.30;;
25341;SDS011;13298;48.792;9.154;2023-07-29T05:21:00;2.40;;;2.20;;
25341;SDS011;13298;48.792;9.154;2023-07-29T05:23:25;4.20;;;2.05;;
25341;SDS011;13298;48.792;9.154;2023-07-29T05:25:51;2.38;;;1.90;;
25341;SDS011;13298;48.792;9.154;2023-07-29T05:28:17;2.42;;;1.88;;
25341;SDS011;13298;48.792;9.154;2023-07-29T05:30:43;2.65;;;1.90;;
25341;SDS011;13298;48.792;9.154;2023-07-29T05:33:09;3.47;;;2.50;;
25341;SDS011;13298;48.792;9.154;2023-07-29T05:35:35;4.53;;;1.80;;
25341;SDS011;13298;48.792;9.154;2023-07-29T05:38:00;3.60;;;2.17;;
25341;SDS011;13298;48.792;9.154;2023-07-29T05:40:28;7.13;;;2.40;;
25341;SDS011;13298;48.792;9.154;2023-07-29T05:42:53;2.72;;;2.13;;
25341;SDS011;13298;48.792;9.154;2023-07-29T05:45:19;2.63;;;1.95;;
25341;SDS011;13298;48.792;9.154;2023-07-29T05:47:45;2.42;;;2.22;;
25341;SDS011;13298;48.792;9.154;2023-07-29T05:50:10;2.17;;;1.75;;
25341;SDS011;13298;48.792;9.154;2023-07-29T05:52:36;4.15;;;1.88;;
25341;SDS011;13298;48.792;9.154;2023-07-29T05:55:02;2.63;;;2.08;;
25341;SDS011;13298;48.792;9.154;2023-07-29T05:57:28;5.72;;;2.20;;
25341;SDS011;13298;48.792;9.154;2023-07-29T05:59:54;3.53;;;2.28;;
25341;SDS011;13298;48.792;9.154;2023-07-29T06:02:19;4.13;;;2.20;;
25341;SDS011;13298;48.792;9.154;2023-07-29T06:04:45;5.70;;;2.08;;
25341;SDS011;13298;48.792;9.154;2023-07-29T06:07:11;3.72;;;1.90;;
25341;SDS011;13298;48.792;9.154;2023-07-29T06:09:37;3.50;;;1.60;;
25341;SDS011;13298;48.792;9.154;2023-07-29T06:12:02;4.75;;;1.90;;
25341;SDS011;13298;48.792;9.154;2023-07-29T06:14:29;2.15;;;1.70;;
25341;SDS011;13298;48.792;9.154;2023-07-29T06:16:55;3.50;;;2.10;;
25341;SDS011;13298;48.792;9.154;2023-07-29T06:19:21;1.77;;;1.50;;
25341;SDS011;13298;48.792;9.154;2023-07-29T06:21:46;1.67;;;1.50;;
25341;SDS011;13298;48.792;9.154;2023-07-29T06:24:13;3.95;;;2.00;;
25341;SDS011;13298;48.792;9.154;2023-07-29T06:26:38;2.45;;;1.77;;
25341;SDS011;13298;48.792;9.154;2023-07-29T06:29:04;5.50;;;2.28;;
25341;SDS011;13298;48.792;9.154;2023-07-29T06:31:30;2.03;;;1.52;;
25341;SDS011;13298;48.792;9.154;2023-07-29T06:33:57;1.80;;;1.52;;
25341;SDS011;13298;48.792;9.154;2023-07-29T06:36:23;2.90;;;1.60;;
25341;SDS011;13298;48.792;9.154;2023-07-29T06:38:49;1.70;;;1.52;;
25341;SDS011;13298;48.792;9.154;2023-07-29T06:41:14;2.22;;;1.58;;
25341;SDS011;13298;48.792;9.154;2023-07-29T06:43:41;3.25;;;1.63;;
25341;SDS011;13298;48.792;9.154;2023-07-29T06:46:07;3.35;;;1.48;;
25341;SDS011;13298;48.792;9.154;2023-07-29T06:48:32;1.65;;;1.40;;
25341;SDS011;13298;48.792;9.154;2023-07-29T06:50:58;3.03;;;1.35;;
25341;SDS011;13298;48.792;9.154;2023-07-29T06:53:26;3.08;;;1.77;;
25341;SDS011;13298;48.792;9.154;2023-07-29T06:55:52;2.20;;;1.23;;
25341;SDS011;13298;48.792;9.154;2023-07-29T06:58:18;2.55;;;1.40;;
25341;SDS011;13298;48.792;9.154;2023-07-29T07:00:44;2.10;;;1.50;;
25341;SDS011;13298;48.792;9.154;2023-07-29T07:03:09;2.17;;;1.50;;
25341;SDS011;13298;48.792;9.154;2023-07-29T07:05:35;4.95;;;1.75;;
25341;SDS011;13298;48.792;9.154;2023-07-29T07:08:01;1.90;;;1.50;;
25341;SDS011;13298;48.792;9.154;2023-07-29T07:10:27;2.22;;;1.60;;
25341;SDS011;13298;48.792;9.154;2023-07-29T07:12:52;6.38;;;1.80;;
25341;SDS011;13298;48.792;9.154;2023-07-29T07:15:18;2.55;;;1.65;;
25341;SDS011;13298;48.792;9.154;2023-07-29T07:17:44;3.70;;;1.45;;
25341;SDS011;13298;48.792;9.154;2023-07-29T07:20:10;3.58;;;1.52;;
25341;SDS011;13298;48.792;9.154;2023-07-29T07:22:36;2.30;;;1.35;;
25341;SDS011;13298;48.792;9.154;2023-07-29T07:25:02;1.75;;;1.25;;
25341;SDS011;13298;48.792;9.154;2023-07-29T07:27:28;1.33;;;1.13;;
25341;SDS011;13298;48.792;9.154;2023-07-29T07:29:53;3.65;;;1.40;;
25341;SDS011;13298;48.792;9.154;2023-07-29T07:32:19;3.55;;;1.30;;
25341;SDS011;13298;48.792;9.154;2023-07-29T07:34:45;2.15;;;1.50;;
25341;SDS011;13298;48.792;9.154;2023-07-29T07:37:11;2.63;;;1.42;;
25341;SDS011;13298;48.792;9.154;2023-07-29T07:39:36;2.63;;;1.30;;
25341;SDS011;13298;48.792;9.154;2023-07-29T07:42:02;3.03;;;1.27;;
25341;SDS011;13298;48.792;9.154;2023-07-29T07:44:28;1.80;;;1.20;;
25341;SDS011;13298;48.792;9.154;2023-07-29T07:46:54;2.13;;;1.10;;
25341;SDS011;13298;48.792;9.154;2023-07-29T07:49:19;1.95;;;1.20;;
25341;SDS011;13298;48.792;9.154;2023-07-29T07:51:45;1.52;;;0.80;;
25341;SDS011;13298;48.792;9.154;2023-07-29T07:54:11;4.00;;;1.30;;
25341;SDS011;13298;48.792;9.154;2023-07-29T07:56:36;1.70;;;0.90;;
25341;SDS011;13298;48.792;9.154;2023-07-29T07:59:03;2.33;;;1.30;;
25341;SDS011;13298;48.792;9.154;2023-07-29T08:01:33;1.92;;;1.15;;
25341;SDS011;13298;48.792;9.154;2023-07-29T08:04:01;1.13;;;0.98;;
25341;SDS011;13298;48.792;9.154;2023-07-29T08:06:27;1.77;;;1.20;;
25341;SDS011;13298;48.792;9.154;2023-07-29T08:08:52;1.23;;;0.90;;
25341;SDS011;13298;48.792;9.154;2023-07-29T08:11:18;1.65;;;1.20;;
25341;SDS011;13298;48.792;9.154;2023-07-29T08:13:44;1.35;;;1.00;;
25341;SDS011;13298;48.792;9.154;2023-07-29T08:16:09;1.80;;;1.20;;
25341;SDS011;13298;48.792;9.154;2023-07-29T08:18:37;2.75;;;1.45;;
25341;SDS011;13298;48.792;9.154;2023-07-29T08:21:03;1.50;;;1.00;;
25341;SDS011;13298;48.792;9.154;2023-07-29T08:23:29;1.55;;;1.20;;
25341;SDS011;13298;48.792;9.154;2023-07-29T08:25:57;2.08;;;1.00;;
25341;SDS011;13298;48.792;9.154;2023-07-29T08:28:28;3.00;;;1.30;;
25341;SDS011;13298;48.792;9.154;2023-07-29T08:31:02;1.73;;;1.02;;
25341;SDS011;13298;48.792;9.154;2023-07-29T08:33:29;1.83;;;0.98;;
25341;SDS011;13298;48.792;9.154;2023-07-29T08:35:55;1.88;;;1.05;;
25341;SDS011;13298;48.792;9.154;2023-07-29T08:38:22;1.15;;;1.00;;
25341;SDS011;13298;48.792;9.154;2023-07-29T08:40:57;1.17;;;0.90;;
25341;SDS011;13298;48.792;9.154;2023-07-29T08:43:59;2.50;;;1.20;;
25341;SDS011;13298;48.792;9.154;2023-07-29T08:46:32;3.40;;;0.90;;
25341;SDS011;13298;48.792;9.154;2023-07-29T08:48:58;1.00;;;0.90;;
25341;SDS011;13298;48.792;9.154;2023-07-29T08:51:26;1.15;;;0.90;;
25341;SDS011;13298;48.792;9.154;2023-07-29T08:53:52;1.30;;;1.20;;
25341;SDS011;13298;48.792;9.154;2023-07-29T08:56:18;2.10;;;1.02;;
25341;SDS011;13298;48.792;9.154;2023-07-29T08:58:45;1.38;;;1.02;;
25341;SDS011;13298;48.792;9.154;2023-07-29T09:01:11;3.40;;;1.30;;
25341;SDS011;13298;48.792;9.154;2023-07-29T09:03:37;1.40;;;1.00;;
25341;SDS011;13298;48.792;9.154;2023-07-29T09:06:03;1.27;;;0.93;;
25341;SDS011;13298;48.792;9.154;2023-07-29T09:08:29;1.90;;;1.02;;
25341;SDS011;13298;48.792;9.154;2023-07-29T09:10:54;2.65;;;1.10;;
25341;SDS011;13298;48.792;9.154;2023-07-29T09:13:21;2.20;;;1.10;;
25341;SDS011;13298;48.792;9.154;2023-07-29T09:15:47;1.42;;;1.17;;
25341;SDS011;13298;48.792;9.154;2023-07-29T09:18:17;1.40;;;0.90;;
25341;SDS011;13298;48.792;9.154;2023-07-29T09:20:48;2.50;;;1.08;;
25341;SDS011;13298;48.792;9.154;2023-07-29T09:23:15;0.85;;;0.82;;
25341;SDS011;13298;48.792;9.154;2023-07-29T09:25:41;1.77;;;0.98;;
25341;SDS011;13298;48.792;9.154;2023-07-29T09:28:07;7.30;;;1.30;;
25341;SDS011;13298;48.792;9.154;2023-07-29T09:30:38;1.92;;;1.00;;
25341;SDS011;13298;48.792;9.154;2023-07-29T09:33:07;1.95;;;1.33;;
25341;SDS011;13298;48.792;9.154;2023-07-29T09:35:35;1.67;;;1.02;;
25341;SDS011;13298;48.792;9.154;2023-07-29T09:38:02;1.67;;;1.25;;
25341;SDS011;13298;48.792;9.154;2023-07-29T09:40:39;1.45;;;1.10;;
25341;SDS011;13298;48.792;9.154;2023-07-29T09:43:06;2.53;;;1.23;;
25341;SDS011;13298;48.792;9.154;2023-07-29T09:45:36;2.58;;;1.33;;
25341;SDS011;13298;48.792;9.154;2023-07-29T09:48:03;2.30;;;1.38;;
25341;SDS011;13298;48.792;9.154;2023-07-29T09:50:34;1.37;;;1.27;;
25341;SDS011;13298;48.792;9.154;2023-07-29T09:53:00;2.28;;;1.27;;
25341;SDS011;13298;48.792;9.154;2023-07-29T09:55:28;1.77;;;1.40;;
25341;SDS011;13298;48.792;9.154;2023-07-29T09:57:58;1.45;;;1.15;;
25341;SDS011;13298;48.792;9.154;2023-07-29T10:00:30;1.77;;;1.17;;
25341;SDS011;13298;48.792;9.154;2023-07-29T10:02:57;1.70;;;1.20;;
25341;SDS011;13298;48.792;9.154;2023-07-29T10:05:27;3.25;;;1.30;;
25341;SDS011;13298;48.792;9.154;2023-07-29T10:07:54;2.35;;;1.35;;
25341;SDS011;13298;48.792;9.154;2023-07-29T10:10:21;1.60;;;1.30;;
25341;SDS011;13298;48.792;9.154;2023-07-29T10:12:47;2.10;;;1.38;;
25341;SDS011;13298;48.792;9.154;2023-07-29T10:15:13;4.18;;;1.50;;
25341;SDS011;13298;48.792;9.154;2023-07-29T10:17:41;2.20;;;1.38;;
25341;SDS011;13298;48.792;9.154;2023-07-29T10:20:08;1.98;;;1.30;;
25341;SDS011;13298;48.792;9.154;2023-07-29T10:22:36;1.65;;;1.20;;
25341;SDS011;13298;48.792;9.154;2023-07-29T10:25:16;2.95;;;1.25;;
25341;SDS011;13298;48.792;9.154;2023-07-29T10:30:31;3.05;;;1.20;;
25341;SDS011;13298;48.792;9.154;2023-07-29T10:32:58;1.25;;;1.05;;
25341;SDS011;13298;48.792;9.154;2023-07-29T10:35:27;1.73;;;1.35;;
25341;SDS011;13298;48.792;9.154;2023-07-29T10:37:53;2.00;;;1.20;;
25341;SDS011;13298;48.792;9.154;2023-07-29T10:40:20;2.15;;;1.08;;
25341;SDS011;13298;48.792;9.154;2023-07-29T10:43:48;1.92;;;1.02;;
25341;SDS011;13298;48.792;9.154;2023-07-29T10:46:21;1.67;;;0.90;;
25341;SDS011;13298;48.792;9.154;2023-07-29T10:51:35;1.27;;;1.17;;
25341;SDS011;13298;48.792;9.154;2023-07-29T10:54:11;1.20;;;1.10;;
25341;SDS011;13298;48.792;9.154;2023-07-29T10:56:43;2.13;;;1.10;;
25341;SDS011;13298;48.792;9.154;2023-07-29T11:01:41;1.33;;;1.10;;
25341;SDS011;13298;48.792;9.154;2023-07-29T11:17:36;1.70;;;1.38;;
25341;SDS011;13298;48.792;9.154;2023-07-29T11:20:06;1.30;;;1.20;;
25341;SDS011;13298;48.792;9.154;2023-07-29T11:22:33;1.13;;;1.00;;
25341;SDS011;13298;48.792;9.154;2023-07-29T11:24:59;1.63;;;1.40;;
25341;SDS011;13298;48.792;9.154;2023-07-29T11:27:25;1.58;;;1.40;;
25341;SDS011;13298;48.792;9.154;2023-07-29T11:29:55;1.65;;;1.30;;
25341;SDS011;13298;48.792;9.154;2023-07-29T11:32:30;0.88;;;0.85;;
25341;SDS011;13298;48.792;9.154;2023-07-29T11:34:57;1.35;;;1.10;;
25341;SDS011;13298;48.792;9.154;2023-07-29T11:37:29;2.35;;;1.25;;
25341;SDS011;13298;48.792;9.154;2023-07-29T11:39:55;1.50;;;1.20;;
25341;SDS011;13298;48.792;9.154;2023-07-29T11:42:20;1.70;;;1.17;;
25341;SDS011;13298;48.792;9.154;2023-07-29T11:44:46;1.42;;;1.20;;
25341;SDS011;13298;48.792;9.154;2023-07-29T11:47:12;2.00;;;1.17;;
25341;SDS011;13298;48.792;9.154;2023-07-29T11:49:39;1.45;;;1.10;;
25341;SDS011;13298;48.792;9.154;2023-07-29T11:52:06;2.58;;;1.23;;
25341;SDS011;13298;48.792;9.154;2023-07-29T11:54:37;4.00;;;1.27;;
25341;SDS011;13298;48.792;9.154;2023-07-29T11:57:07;1.92;;;1.20;;
25341;SDS011;13298;48.792;9.154;2023-07-29T11:59:36;1.58;;;1.30;;
25341;SDS011;13298;48.792;9.154;2023-07-29T12:02:06;3.33;;;1.33;;
25341;SDS011;13298;48.792;9.154;2023-07-29T12:04:37;1.23;;;1.10;;
25341;SDS011;13298;48.792;9.154;2023-07-29T12:07:04;1.63;;;1.23;;
25341;SDS011;13298;48.792;9.154;2023-07-29T12:09:30;2.03;;;1.27;;
25341;SDS011;13298;48.792;9.154;2023-07-29T12:11:56;1.40;;;1.17;;
25341;SDS011;13298;48.792;9.154;2023-07-29T12:14:25;3.42;;;1.30;;
25341;SDS011;13298;48.792;9.154;2023-07-29T12:16:54;1.83;;;1.20;;
25341;SDS011;13298;48.792;9.154;2023-07-29T12:19:20;1.40;;;1.10;;
25341;SDS011;13298;48.792;9.154;2023-07-29T12:21:47;1.85;;;1.50;;
25341;SDS011;13298;48.792;9.154;2023-07-29T12:24:14;1.67;;;1.48;;
25341;SDS011;13298;48.792;9.154;2023-07-29T12:26:40;1.52;;;1.20;;
25341;SDS011;13298;48.792;9.154;2023-07-29T12:29:14;2.38;;;1.70;;
25341;SDS011;13298;48.792;9.154;2023-07-29T12:31:41;2.15;;;1.50;;
25341;SDS011;13298;48.792;9.154;2023-07-29T12:34:07;1.90;;;1.50;;
25341;SDS011;13298;48.792;9.154;2023-07-29T12:36:41;2.30;;;1.45;;
25341;SDS011;13298;48.792;9.154;2023-07-29T12:39:24;2.42;;;1.40;;
25341;SDS011;13298;48.792;9.154;2023-07-29T12:41:53;1.90;;;1.50;;
25341;SDS011;13298;48.792;9.154;2023-07-29T12:44:22;2.38;;;1.60;;
25341;SDS011;13298;48.792;9.154;2023-07-29T12:46:48;2.08;;;1.40;;
25341;SDS011;13298;48.792;9.154;2023-07-29T12:49:14;1.83;;;1.50;;
25341;SDS011;13298;48.792;9.154;2023-07-29T12:51:40;1.45;;;1.33;;
25341;SDS011;13298;48.792;9.154;2023-07-29T12:54:06;1.60;;;1.45;;
25341;SDS011;13298;48.792;9.154;2023-07-29T12:56:32;1.70;;;1.38;;
25341;SDS011;13298;48.792;9.154;2023-07-29T12:58:58;3.17;;;1.50;;
25341;SDS011;13298;48.792;9.154;2023-07-29T13:01:25;2.30;;;1.30;;
25341;SDS011;13298;48.792;9.154;2023-07-29T13:03:51;4.70;;;1.50;;
25341;SDS011;13298;48.792;9.154;2023-07-29T13:06:17;2.97;;;1.58;;
25341;SDS011;13298;48.792;9.154;2023-07-29T13:08:44;1.90;;;1.60;;
25341;SDS011;13298;48.792;9.154;2023-07-29T13:11:10;1.83;;;1.33;;
25341;SDS011;13298;48.792;9.154;2023-07-29T13:13:37;5.78;;;1.50;;
25341;SDS011;13298;48.792;9.154;2023-07-29T13:16:02;2.83;;;1.50;;
25341;SDS011;13298;48.792;9.154;2023-07-29T13:18:28;1.67;;;1.40;;
25341;SDS011;13298;48.792;9.154;2023-07-29T13:20:54;1.60;;;1.50;;
25341;SDS011;13298;48.792;9.154;2023-07-29T13:23:20;2.22;;;1.45;;
25341;SDS011;13298;48.792;9.154;2023-07-29T13:25:46;1.55;;;1.40;;
25341;SDS011;13298;48.792;9.154;2023-07-29T13:28:12;1.80;;;1.45;;
25341;SDS011;13298;48.792;9.154;2023-07-29T13:30:38;1.65;;;1.30;;
25341;SDS011;13298;48.792;9.154;2023-07-29T13:33:05;2.78;;;1.30;;
25341;SDS011;13298;48.792;9.154;2023-07-29T13:35:32;1.80;;;1.35;;
25341;SDS011;13298;48.792;9.154;2023-07-29T13:37:58;2.10;;;1.52;;
25341;SDS011;13298;48.792;9.154;2023-07-29T13:40:24;1.77;;;1.58;;
25341;SDS011;13298;48.792;9.154;2023-07-29T13:42:50;3.67;;;1.40;;
25341;SDS011;13298;48.792;9.154;2023-07-29T13:45:16;2.00;;;1.55;;
25341;SDS011;13298;48.792;9.154;2023-07-29T13:47:42;2.17;;;1.50;;
25341;SDS011;13298;48.792;9.154;2023-07-29T13:50:08;2.38;;;1.55;;
25341;SDS011;13298;48.792;9.154;2023-07-29T13:52:35;2.28;;;1.30;;
25341;SDS011;13298;48.792;9.154;2023-07-29T13:55:02;4.03;;;1.60;;
25341;SDS011;13298;48.792;9.154;2023-07-29T13:57:29;4.85;;;1.52;;
25341;SDS011;13298;48.792;9.154;2023-07-29T13:59:54;1.40;;;1.30;;
25341;SDS011;13298;48.792;9.154;2023-07-29T14:02:20;3.33;;;1.50;;
25341;SDS011;13298;48.792;9.154;2023-07-29T14:04:46;1.63;;;1.10;;
25341;SDS011;13298;48.792;9.154;2023-07-29T14:07:11;4.10;;;1.50;;
25341;SDS011;13298;48.792;9.154;2023-07-29T14:09:37;1.83;;;1.50;;
25341;SDS011;13298;48.792;9.154;2023-07-29T14:12:03;1.58;;;1.20;;
25341;SDS011;13298;48.792;9.154;2023-07-29T14:14:30;1.58;;;1.48;;
25341;SDS011;13298;48.792;9.154;2023-07-29T14:16:56;1.90;;;1.25;;
25341;SDS011;13298;48.792;9.154;2023-07-29T14:19:22;4.07;;;1.88;;
25341;SDS011;13298;48.792;9.154;2023-07-29T14:21:48;3.08;;;1.70;;
25341;SDS011;13298;48.792;9.154;2023-07-29T14:24:14;2.40;;;1.50;;
25341;SDS011;13298;48.792;9.154;2023-07-29T14:26:40;1.88;;;1.63;;
25341;SDS011;13298;48.792;9.154;2023-07-29T14:29:06;1.60;;;1.50;;
25341;SDS011;13298;48.792;9.154;2023-07-29T14:31:32;2.85;;;1.67;;
25341;SDS011;13298;48.792;9.154;2023-07-29T14:33:58;2.88;;;1.50;;
25341;SDS011;13298;48.792;9.154;2023-07-29T14:36:24;2.50;;;1.70;;
25341;SDS011;13298;48.792;9.154;2023-07-29T14:38:50;2.30;;;1.42;;
25341;SDS011;13298;48.792;9.154;2023-07-29T14:41:16;1.75;;;1.50;;
25341;SDS011;13298;48.792;9.154;2023-07-29T14:43:42;1.95;;;1.60;;
25341;SDS011;13298;48.792;9.154;2023-07-29T14:46:08;3.28;;;1.45;;
25341;SDS011;13298;48.792;9.154;2023-07-29T14:48:33;7.13;;;1.65;;
25341;SDS011;13298;48.792;9.154;2023-07-29T14:50:59;1.73;;;1.38;;
25341;SDS011;13298;48.792;9.154;2023-07-29T14:53:25;2.10;;;1.50;;
25341;SDS011;13298;48.792;9.154;2023-07-29T14:55:51;1.92;;;1.58;;
25341;SDS011;13298;48.792;9.154;2023-07-29T14:58:16;1.92;;;1.73;;
25341;SDS011;13298;48.792;9.154;2023-07-29T15:00:42;3.60;;;1.60;;
25341;SDS011;13298;48.792;9.154;2023-07-29T15:03:08;2.78;;;1.70;;
25341;SDS011;13298;48.792;9.154;2023-07-29T15:05:33;2.05;;;1.63;;
25341;SDS011;13298;48.792;9.154;2023-07-29T15:07:59;2.97;;;1.55;;
25341;SDS011;13298;48.792;9.154;2023-07-29T15:10:25;1.67;;;1.58;;
25341;SDS011;13298;48.792;9.154;2023-07-29T15:12:51;3.92;;;1.50;;
25341;SDS011;13298;48.792;9.154;2023-07-29T15:15:16;2.95;;;1.58;;
25341;SDS011;13298;48.792;9.154;2023-07-29T15:17:42;2.25;;;1.55;;